KFEW/FEW METAR and TAF weather

Enter ICAO airport designator
Station Type Date Time Source
KFEW METAR 2021/01/17 18:58 UTC NOAA

KFEW 171858Z AUTO 29012KT 10SM OVC075 05/M12 A2998 RMK AO2 SLP173 T00451125 $


Station Type Date Time Source
KFEW Decoded METAR 2021/01/17 18:58 UTC NOAA

Station name not available
Jan 17, 2021 - 01:58 PM EST / 2021.01.17 1858 UTC
Wind: from the WNW (290 degrees) at 14 MPH (12 KT):0
Visibility: 10 mile(s):0
Sky conditions: overcast
Temperature: 40.1 F (4.5 C)
Dew Point: 9.5 F (-12.5 C)
Relative Humidity: 27%
Pressure (altimeter): 29.98 in. Hg (1015 hPa)
ob: KFEW 171858Z AUTO 29012KT 10SM OVC075 05/M12 A2998 RMK AO2 SLP173 T00451125
cycle: 19

Station Type Date Time Source
KFEW TAF UTC NOAA

Error!

Example: see airport list